PWSweather.com
Personal Weather Stations
Station Observations
MADWEATHER
MadeiraPT

MadeiraPT

Lat: 32.735, Lon: -17.194

Elevation: 1063

Station Type: Davis VantagePro2

Latest ConditionsUpdated 5:30:01 PM GMT Saturday, Oct 21, 2017
Currently Today's Max Today's Min Today's Average
Temperature 71.9°F22.2°C 72.1°F22.3°C 63.8°F17.7°C 67.8°F19.9°C
Dew Point 62.4°F16.9°C 66.1°F18.9°C 56.8°F13.8°C 61.9°F16.6°C
Winds 1.3 mph E2.1 kmh E 4.4 mph E7.1 kmh E - 1.1 mph 1.8 kmh
Wind Gusts 2.0 mph3.2 kmh 7.0 mph11.3 kmh - -
Humidity 72% 89% 70% 82%
Pressure 30.24 in1024.0 mb 30.30 in1026.1 mb 30.20 in1022.7 mb -
Hour Temp Dew Point Humidity Winds Wind Gusts Pressure Precip Precip Rate Daily Precip Total
05:30 PM 71.9°F22.2°C 62.4°F16.9°C 72% 1.3 mph E2.1 kmh E 2.0 mph3.2 kmh 30.24 in1024.0 mb - 0.00 in0.0 mm 0.00 in0.0 mm
05:20 PM 72.1°F22.3°C 61.8°F16.6°C 70% 0.9 mph E1.4 kmh E 2.0 mph3.2 kmh 30.24 in1024.0 mb - 0.00 in0.0 mm 0.00 in0.0 mm
05:10 PM 71.3°F21.8°C 61.4°F16.3°C 71% Calm Calm -- 30.24 in1024.0 mb - 0.00 in0.0 mm 0.00 in0.0 mm
05:00 PM 71.2°F21.8°C 62.1°F16.7°C 73% 1.3 mph E2.1 kmh E 3.0 mph4.8 kmh 30.24 in1024.0 mb - 0.00 in0.0 mm 0.00 in0.0 mm
04:50 PM 70.8°F21.6°C 61.7°F16.5°C 73% Calm Calm 1.0 mph1.6 kmh 30.24 in1024.0 mb - 0.00 in0.0 mm 0.00 in0.0 mm
04:40 PM 71.1°F21.7°C 64.3°F17.9°C 79% Calm Calm -- 30.24 in1024.0 mb - 0.00 in0.0 mm 0.00 in0.0 mm
04:30 PM 71.2°F21.8°C 64.0°F17.8°C 78% 1.2 mph E1.9 kmh E 2.0 mph3.2 kmh 30.24 in1024.0 mb - 0.00 in0.0 mm 0.00 in0.0 mm
04:20 PM 71.1°F21.7°C 63.1°F17.3°C 76% 1.5 mph E2.4 kmh E 2.0 mph3.2 kmh 30.24 in1024.0 mb - 0.00 in0.0 mm 0.00 in0.0 mm
04:10 PM 70.8°F21.6°C 63.2°F17.3°C 77% 1.2 mph E1.9 kmh E 4.0 mph6.4 kmh 30.24 in1024.0 mb - 0.00 in0.0 mm 0.00 in0.0 mm
04:00 PM 70.9°F21.6°C 64.1°F17.8°C 79% 1.5 mph E2.4 kmh E 3.0 mph4.8 kmh 30.24 in1024.0 mb - 0.00 in0.0 mm 0.00 in0.0 mm
03:50 PM 71.1°F21.7°C 64.3°F17.9°C 79% 3.7 mph E6.0 kmh E 7.0 mph11.3 kmh 30.24 in1024.0 mb - 0.00 in0.0 mm 0.00 in0.0 mm
03:40 PM 71.2°F21.8°C 63.6°F17.6°C 77% 4.4 mph E7.1 kmh E 6.0 mph9.7 kmh 30.24 in1024.0 mb - 0.00 in0.0 mm 0.00 in0.0 mm
03:30 PM 71.4°F21.9°C 63.0°F17.2°C 75% 1.6 mph E2.6 kmh E 4.0 mph6.4 kmh 30.24 in1024.0 mb - 0.00 in0.0 mm 0.00 in0.0 mm
03:20 PM 72.1°F22.3°C 63.0°F17.2°C 73% 2.7 mph E4.3 kmh E 5.0 mph8.0 kmh 30.23 in1023.7 mb - 0.00 in0.0 mm 0.00 in0.0 mm
03:10 PM 71.5°F21.9°C 64.3°F17.9°C 78% 0.7 mph E1.1 kmh E 2.0 mph3.2 kmh 30.23 in1023.7 mb - 0.00 in0.0 mm 0.00 in0.0 mm
03:00 PM 71.3°F21.8°C 64.8°F18.2°C 80% 0.5 mph E0.8 kmh E 2.0 mph3.2 kmh 30.23 in1023.7 mb - 0.00 in0.0 mm 0.00 in0.0 mm
02:50 PM 71.2°F21.8°C 65.4°F18.6°C 82% Calm Calm -- 30.23 in1023.7 mb - 0.00 in0.0 mm 0.00 in0.0 mm
02:40 PM 70.9°F21.6°C 65.1°F18.4°C 82% Calm Calm -- 30.23 in1023.7 mb - 0.00 in0.0 mm 0.00 in0.0 mm
02:30 PM 71.0°F21.7°C 65.3°F18.5°C 82% 1.2 mph E1.9 kmh E 3.0 mph4.8 kmh 30.23 in1023.7 mb - 0.00 in0.0 mm 0.00 in0.0 mm
02:20 PM 71.1°F21.7°C 65.3°F18.5°C 82% 1.4 mph E2.3 kmh E 2.0 mph3.2 kmh 30.23 in1023.7 mb - 0.00 in0.0 mm 0.00 in0.0 mm
02:10 PM 70.9°F21.6°C 65.1°F18.4°C 82% 2.6 mph E4.2 kmh E 3.0 mph4.8 kmh 30.23 in1023.7 mb - 0.00 in0.0 mm 0.00 in0.0 mm
02:00 PM 71.0°F21.7°C 65.2°F18.4°C 82% 2.2 mph E3.5 kmh E 4.0 mph6.4 kmh 30.23 in1023.7 mb - 0.00 in0.0 mm 0.00 in0.0 mm
01:50 PM 71.2°F21.8°C 66.1°F18.9°C 84% 2.8 mph E4.5 kmh E 7.0 mph11.3 kmh 30.24 in1024.0 mb - 0.00 in0.0 mm 0.00 in0.0 mm
01:40 PM 69.9°F21.1°C 65.2°F18.4°C 85% 1.1 mph E1.8 kmh E 4.0 mph6.4 kmh 30.25 in1024.4 mb - 0.00 in0.0 mm 0.00 in0.0 mm
01:30 PM 69.5°F20.8°C 64.5°F18.1°C 84% 0.3 mph E0.5 kmh E 3.0 mph4.8 kmh 30.24 in1024.0 mb - 0.00 in0.0 mm 0.00 in0.0 mm
01:20 PM 69.6°F20.9°C 64.6°F18.1°C 84% Calm Calm -- 30.25 in1024.4 mb - 0.00 in0.0 mm 0.00 in0.0 mm
01:10 PM 69.7°F20.9°C 64.6°F18.1°C 84% Calm Calm -- 30.25 in1024.4 mb - 0.00 in0.0 mm 0.00 in0.0 mm
01:00 PM 69.8°F21.0°C 64.7°F18.2°C 84% Calm Calm -- 30.25 in1024.4 mb - 0.00 in0.0 mm 0.00 in0.0 mm
12:50 PM 69.9°F21.1°C 64.8°F18.2°C 84% Calm Calm -- 30.26 in1024.7 mb - 0.00 in0.0 mm 0.00 in0.0 mm
12:40 PM 69.8°F21.0°C 65.1°F18.4°C 85% 2.3 mph E3.7 kmh E 3.0 mph4.8 kmh 30.26 in1024.7 mb - 0.00 in0.0 mm 0.00 in0.0 mm
12:30 PM 69.8°F21.0°C 64.7°F18.2°C 84% 0.4 mph E0.6 kmh E 1.0 mph1.6 kmh 30.27 in1025.1 mb - 0.00 in0.0 mm 0.00 in0.0 mm
12:20 PM 69.8°F21.0°C 64.4°F18.0°C 83% 0.1 mph E0.2 kmh E -- 30.27 in1025.1 mb - 0.00 in0.0 mm 0.00 in0.0 mm
12:10 PM 69.8°F21.0°C 64.4°F18.0°C 83% 1.0 mph E1.6 kmh E 2.0 mph3.2 kmh 30.28 in1025.4 mb - 0.00 in0.0 mm 0.00 in0.0 mm
12:00 PM 69.9°F21.1°C 64.5°F18.1°C 83% 0.5 mph E0.8 kmh E 1.0 mph1.6 kmh 30.28 in1025.4 mb - 0.00 in0.0 mm 0.00 in0.0 mm
11:50 AM 70.1°F21.2°C 64.7°F18.2°C 83% 1.0 mph E1.6 kmh E 2.0 mph3.2 kmh 30.28 in1025.4 mb - 0.00 in0.0 mm 0.00 in0.0 mm
11:40 AM 70.3°F21.3°C 64.9°F18.3°C 83% 0.6 mph E1.0 kmh E 1.0 mph1.6 kmh 30.28 in1025.4 mb - 0.00 in0.0 mm 0.00 in0.0 mm
11:30 AM 70.3°F21.3°C 64.9°F18.3°C 83% 1.8 mph E2.9 kmh E 3.0 mph4.8 kmh 30.28 in1025.4 mb - 0.00 in0.0 mm 0.00 in0.0 mm
11:20 AM 70.1°F21.2°C 65.0°F18.3°C 84% 0.4 mph E0.6 kmh E 1.0 mph1.6 kmh 30.28 in1025.4 mb - 0.00 in0.0 mm 0.00 in0.0 mm
11:10 AM 70.0°F21.1°C 64.9°F18.3°C 84% 0.8 mph E1.3 kmh E 3.0 mph4.8 kmh 30.28 in1025.4 mb - 0.00 in0.0 mm 0.00 in0.0 mm
11:00 AM 69.9°F21.1°C 65.2°F18.4°C 85% 0.7 mph E1.1 kmh E 1.0 mph1.6 kmh 30.29 in1025.7 mb - 0.00 in0.0 mm 0.00 in0.0 mm
10:50 AM 69.9°F21.1°C 65.2°F18.4°C 85% 0.5 mph E0.8 kmh E 2.0 mph3.2 kmh 30.29 in1025.7 mb - 0.00 in0.0 mm 0.00 in0.0 mm
10:40 AM 70.2°F21.2°C 65.1°F18.4°C 84% 1.2 mph E1.9 kmh E 2.0 mph3.2 kmh 30.30 in1026.1 mb - 0.00 in0.0 mm 0.00 in0.0 mm
10:30 AM 70.0°F21.1°C 65.3°F18.5°C 85% 0.7 mph E1.1 kmh E 1.0 mph1.6 kmh 30.30 in1026.1 mb - 0.00 in0.0 mm 0.00 in0.0 mm
10:20 AM 69.4°F20.8°C 64.7°F18.2°C 85% Calm Calm -- 30.30 in1026.1 mb - 0.00 in0.0 mm 0.00 in0.0 mm
10:10 AM 69.5°F20.8°C 64.8°F18.2°C 85% Calm Calm -- 30.30 in1026.1 mb - 0.00 in0.0 mm 0.00 in0.0 mm
10:00 AM 69.5°F20.8°C 64.5°F18.1°C 84% 0.6 mph E1.0 kmh E 1.0 mph1.6 kmh 30.30 in1026.1 mb - 0.00 in0.0 mm 0.00 in0.0 mm
09:50 AM 69.8°F21.0°C 64.4°F18.0°C 83% 1.3 mph E2.1 kmh E 4.0 mph6.4 kmh 30.30 in1026.1 mb - 0.00 in0.0 mm 0.00 in0.0 mm
09:40 AM 70.0°F21.1°C 64.6°F18.1°C 83% 1.2 mph E1.9 kmh E 2.0 mph3.2 kmh 30.29 in1025.7 mb - 0.00 in0.0 mm 0.00 in0.0 mm
09:30 AM 70.0°F21.1°C 64.6°F18.1°C 83% Calm Calm -- 30.28 in1025.4 mb - 0.00 in0.0 mm 0.00 in0.0 mm
09:20 AM 70.3°F21.3°C 64.9°F18.3°C 83% 0.3 mph E0.5 kmh E 1.0 mph1.6 kmh 30.29 in1025.7 mb - 0.00 in0.0 mm 0.00 in0.0 mm
09:10 AM 69.7°F20.9°C 65.0°F18.3°C 85% 2.3 mph E3.7 kmh E 4.0 mph6.4 kmh 30.29 in1025.7 mb - 0.00 in0.0 mm 0.00 in0.0 mm
09:00 AM 69.0°F20.6°C 64.7°F18.2°C 86% 0.5 mph E0.8 kmh E 1.0 mph1.6 kmh 30.28 in1025.4 mb - 0.00 in0.0 mm 0.00 in0.0 mm
08:50 AM 68.2°F20.1°C 64.5°F18.1°C 88% 0.5 mph E0.8 kmh E 2.0 mph3.2 kmh 30.27 in1025.1 mb - 0.00 in0.0 mm 0.00 in0.0 mm
08:40 AM 67.1°F19.5°C 63.4°F17.4°C 88% 0.1 mph E0.2 kmh E 1.0 mph1.6 kmh 30.27 in1025.1 mb - 0.00 in0.0 mm 0.00 in0.0 mm
08:30 AM 66.4°F19.1°C 62.7°F17.1°C 88% Calm Calm -- 30.27 in1025.1 mb - 0.00 in0.0 mm 0.00 in0.0 mm
08:20 AM 65.8°F18.8°C 62.1°F16.7°C 88% Calm Calm -- 30.26 in1024.7 mb - 0.00 in0.0 mm 0.00 in0.0 mm
08:10 AM 65.4°F18.6°C 61.1°F16.2°C 86% 1.9 mph E3.1 kmh E 3.0 mph4.8 kmh 30.26 in1024.7 mb - 0.00 in0.0 mm 0.00 in0.0 mm
08:00 AM 65.5°F18.6°C 60.9°F16.1°C 85% 2.0 mph E3.2 kmh E 3.0 mph4.8 kmh 30.26 in1024.7 mb - 0.00 in0.0 mm 0.00 in0.0 mm
07:50 AM 65.5°F18.6°C 60.8°F16.0°C 85% Calm Calm -- 30.26 in1024.7 mb - 0.00 in0.0 mm 0.00 in0.0 mm
07:40 AM 65.3°F18.5°C 61.0°F16.1°C 86% 0.1 mph E0.2 kmh E -- 30.26 in1024.7 mb - 0.00 in0.0 mm 0.00 in0.0 mm
07:30 AM 65.2°F18.4°C 61.2°F16.2°C 87% 0.6 mph E1.0 kmh E 1.0 mph1.6 kmh 30.25 in1024.4 mb - 0.00 in0.0 mm 0.00 in0.0 mm
07:20 AM 65.1°F18.4°C 61.5°F16.4°C 88% 2.1 mph E3.4 kmh E 3.0 mph4.8 kmh 30.25 in1024.4 mb - 0.00 in0.0 mm 0.00 in0.0 mm
07:10 AM 65.0°F18.3°C 61.4°F16.3°C 88% 1.8 mph E2.9 kmh E 2.0 mph3.2 kmh 30.24 in1024.0 mb - 0.00 in0.0 mm 0.00 in0.0 mm
07:00 AM 65.0°F18.3°C 61.7°F16.5°C 89% 2.0 mph E3.2 kmh E 3.0 mph4.8 kmh 30.24 in1024.0 mb - 0.00 in0.0 mm 0.00 in0.0 mm
06:50 AM 64.8°F18.2°C 61.5°F16.4°C 89% Calm Calm -- 30.24 in1024.0 mb - 0.00 in0.0 mm 0.00 in0.0 mm
06:40 AM 64.5°F18.1°C 61.2°F16.2°C 89% 2.3 mph E3.7 kmh E 3.0 mph4.8 kmh 30.23 in1023.7 mb - 0.00 in0.0 mm 0.00 in0.0 mm
06:30 AM 64.3°F17.9°C 60.7°F15.9°C 88% Calm Calm -- 30.23 in1023.7 mb - 0.00 in0.0 mm 0.00 in0.0 mm
06:20 AM 64.0°F17.8°C 60.4°F15.8°C 88% Calm Calm -- 30.23 in1023.7 mb - 0.00 in0.0 mm 0.00 in0.0 mm
06:10 AM 63.8°F17.7°C 60.2°F15.7°C 88% 1.0 mph E1.6 kmh E 2.0 mph3.2 kmh 30.23 in1023.7 mb - 0.00 in0.0 mm 0.00 in0.0 mm
06:00 AM 63.9°F17.7°C 60.3°F15.7°C 88% 1.6 mph E2.6 kmh E 3.0 mph4.8 kmh 30.23 in1023.7 mb - 0.00 in0.0 mm 0.00 in0.0 mm
05:50 AM 64.0°F17.8°C 60.4°F15.8°C 88% 1.6 mph E2.6 kmh E 4.0 mph6.4 kmh 30.22 in1023.4 mb - 0.00 in0.0 mm 0.00 in0.0 mm
05:40 AM 63.9°F17.7°C 60.0°F15.6°C 87% 1.3 mph E2.1 kmh E 2.0 mph3.2 kmh 30.22 in1023.4 mb - 0.00 in0.0 mm 0.00 in0.0 mm
05:30 AM 64.2°F17.9°C 59.9°F15.5°C 86% 1.7 mph E2.7 kmh E 2.0 mph3.2 kmh 30.22 in1023.4 mb - 0.00 in0.0 mm 0.00 in0.0 mm
05:20 AM 64.4°F18.0°C 59.8°F15.4°C 85% 0.5 mph E0.8 kmh E 2.0 mph3.2 kmh 30.21 in1023.0 mb - 0.00 in0.0 mm 0.00 in0.0 mm
05:10 AM 64.5°F18.1°C 60.2°F15.7°C 86% 0.4 mph E0.6 kmh E 1.0 mph1.6 kmh 30.21 in1023.0 mb - 0.00 in0.0 mm 0.00 in0.0 mm
05:00 AM 64.5°F18.1°C 60.2°F15.7°C 86% 0.3 mph E0.5 kmh E 1.0 mph1.6 kmh 30.20 in1022.7 mb - 0.00 in0.0 mm 0.00 in0.0 mm
04:50 AM 64.5°F18.1°C 59.9°F15.5°C 85% 1.4 mph E2.3 kmh E 3.0 mph4.8 kmh 30.20 in1022.7 mb - 0.00 in0.0 mm 0.00 in0.0 mm
04:40 AM 64.3°F17.9°C 59.7°F15.4°C 85% 1.9 mph E3.1 kmh E 3.0 mph4.8 kmh 30.21 in1023.0 mb - 0.00 in0.0 mm 0.00 in0.0 mm
04:30 AM 64.5°F18.1°C 59.6°F15.3°C 84% Calm Calm 1.0 mph1.6 kmh 30.20 in1022.7 mb - 0.00 in0.0 mm 0.00 in0.0 mm
04:20 AM 65.0°F18.3°C 59.7°F15.4°C 83% 1.5 mph E2.4 kmh E 2.0 mph3.2 kmh 30.20 in1022.7 mb - 0.00 in0.0 mm 0.00 in0.0 mm
04:10 AM 65.4°F18.6°C 59.4°F15.2°C 81% 2.1 mph E3.4 kmh E 3.0 mph4.8 kmh 30.20 in1022.7 mb - 0.00 in0.0 mm 0.00 in0.0 mm
04:00 AM 65.5°F18.6°C 58.8°F14.9°C 79% Calm Calm -- 30.20 in1022.7 mb - 0.00 in0.0 mm 0.00 in0.0 mm
03:50 AM 66.2°F19.0°C 59.2°F15.1°C 78% 0.7 mph E1.1 kmh E 1.0 mph1.6 kmh 30.20 in1022.7 mb - 0.00 in0.0 mm 0.00 in0.0 mm
03:40 AM 66.6°F19.2°C 59.1°F15.1°C 77% Calm Calm -- 30.20 in1022.7 mb - 0.00 in0.0 mm 0.00 in0.0 mm
03:30 AM 66.6°F19.2°C 58.1°F14.5°C 74% 0.5 mph E0.8 kmh E 1.0 mph1.6 kmh 30.20 in1022.7 mb - 0.00 in0.0 mm 0.00 in0.0 mm
03:20 AM 66.5°F19.2°C 57.6°F14.2°C 73% 1.5 mph E2.4 kmh E 3.0 mph4.8 kmh 30.20 in1022.7 mb - 0.00 in0.0 mm 0.00 in0.0 mm
03:10 AM 66.1°F18.9°C 57.6°F14.2°C 74% 2.6 mph E4.2 kmh E 4.0 mph6.4 kmh 30.20 in1022.7 mb - 0.00 in0.0 mm 0.00 in0.0 mm
03:00 AM 66.1°F18.9°C 57.2°F14.0°C 73% 1.7 mph E2.7 kmh E 3.0 mph4.8 kmh 30.20 in1022.7 mb - 0.00 in0.0 mm 0.00 in0.0 mm
02:50 AM 65.7°F18.7°C 56.8°F13.8°C 73% 1.9 mph E3.1 kmh E 3.0 mph4.8 kmh 30.20 in1022.7 mb - 0.00 in0.0 mm 0.00 in0.0 mm
02:40 AM 65.7°F18.7°C 56.8°F13.8°C 73% 2.7 mph E4.3 kmh E 4.0 mph6.4 kmh 30.20 in1022.7 mb - 0.00 in0.0 mm 0.00 in0.0 mm
02:30 AM 65.7°F18.7°C 56.8°F13.8°C 73% 0.9 mph E1.4 kmh E 2.0 mph3.2 kmh 30.20 in1022.7 mb - 0.00 in0.0 mm 0.00 in0.0 mm
02:20 AM 65.9°F18.8°C 57.4°F14.1°C 74% 0.9 mph E1.4 kmh E 2.0 mph3.2 kmh 30.20 in1022.7 mb - 0.00 in0.0 mm 0.00 in0.0 mm
02:10 AM 65.6°F18.7°C 57.1°F13.9°C 74% 2.1 mph E3.4 kmh E 4.0 mph6.4 kmh 30.20 in1022.7 mb - 0.00 in0.0 mm 0.00 in0.0 mm
02:00 AM 65.9°F18.8°C 57.4°F14.1°C 74% 1.0 mph E1.6 kmh E 2.0 mph3.2 kmh 30.20 in1022.7 mb - 0.00 in0.0 mm 0.00 in0.0 mm
01:50 AM 65.9°F18.8°C 57.4°F14.1°C 74% 1.3 mph E2.1 kmh E 3.0 mph4.8 kmh 30.20 in1022.7 mb - 0.00 in0.0 mm 0.00 in0.0 mm
01:40 AM 65.6°F18.7°C 57.4°F14.1°C 75% 1.4 mph E2.3 kmh E 2.0 mph3.2 kmh 30.21 in1023.0 mb - 0.00 in0.0 mm 0.00 in0.0 mm
01:30 AM 65.1°F18.4°C 57.7°F14.3°C 77% 2.0 mph E3.2 kmh E 2.0 mph3.2 kmh 30.21 in1023.0 mb - 0.00 in0.0 mm 0.00 in0.0 mm
01:20 AM 64.9°F18.3°C 57.9°F14.4°C 78% 0.9 mph E1.4 kmh E 1.0 mph1.6 kmh 30.21 in1023.0 mb - 0.00 in0.0 mm 0.00 in0.0 mm
01:10 AM 64.7°F18.2°C 58.0°F14.4°C 79% 2.1 mph E3.4 kmh E 3.0 mph4.8 kmh 30.21 in1023.0 mb - 0.00 in0.0 mm 0.00 in0.0 mm
01:00 AM 64.8°F18.2°C 58.5°F14.7°C 80% 2.3 mph E3.7 kmh E 4.0 mph6.4 kmh 30.21 in1023.0 mb - 0.00 in0.0 mm 0.00 in0.0 mm
12:50 AM 64.5°F18.1°C 58.5°F14.7°C 81% 1.0 mph E1.6 kmh E 2.0 mph3.2 kmh 30.22 in1023.4 mb - 0.00 in0.0 mm 0.00 in0.0 mm
12:40 AM 64.4°F18.0°C 58.8°F14.9°C 82% 1.0 mph E1.6 kmh E 2.0 mph3.2 kmh 30.22 in1023.4 mb - 0.00 in0.0 mm 0.00 in0.0 mm
12:30 AM 64.3°F17.9°C 59.0°F15.0°C 83% 1.6 mph E2.6 kmh E 2.0 mph3.2 kmh 30.22 in1023.4 mb - 0.00 in0.0 mm 0.00 in0.0 mm
12:20 AM 64.2°F17.9°C 59.3°F15.2°C 84% 2.6 mph E4.2 kmh E 4.0 mph6.4 kmh 30.22 in1023.4 mb - 0.00 in0.0 mm 0.00 in0.0 mm
12:10 AM 64.4°F18.0°C 59.8°F15.4°C 85% 2.5 mph E4.0 kmh E 3.0 mph4.8 kmh 30.22 in1023.4 mb - 0.00 in0.0 mm 0.00 in0.0 mm
12:00 AM 64.5°F18.1°C 60.2°F15.7°C 86% 2.7 mph E4.3 kmh E 4.0 mph6.4 kmh 30.22 in1023.4 mb - 0.00 in0.0 mm 0.00 in0.0 mm